One American Place, Louisiana
Current Conditions -  °F | °C
As of 9:53 AM on Monday 22 Dec 2014 (Local Time) from KBTR Reporting Station
Haze Haze  
Wind Chill: 16°   Ceiling: 200
Heat Index: 16°   Visibility: 1mi
Dew Point: 15°   Wind: 7mph
Humidity: 96%   Direction: 140°SE
Pressure: 29.81"   Gusts: NA
Location:  30.4285°N, 91.0224°W
Report Text: KBTR 221553Z 14006KT 1SM BR OVC002 16/15 A2981 RMK AO2 SLP093 T01560150 RVRNO
Loading
Personal Weather Stations






























Interactive Weather Map New forecast layout! Learn more

10-Day Weather Forecast

Advertisements
Track Severe Weather on mobile